Terminal Aerodrome Forecast
Issued by NWS

Home | Current Version | Previous Version | Text Only | Print | Product List | Glossary On
Versions: 1 2 3 4 5 6 7 8 9 10 11 12 13 14
000
FTUS44 KEWX 291720
TAFSSF
TAF
KSSF 291720Z 2918/3018 14009KT P6SM FEW070
     FM300900 VRB02KT P6SM FEW015
      TEMPO 3011/3013 6SM BR
     FM301700 14006KT P6SM FEW060=

USA.gov is the U.S. government's official web portal to all federal, state and local government web resources and services.